AUA563 LOWW-LICJ
Flight info
| Callsign | AUA563 |
|---|---|
| Flight time | N/A |
| Altitude | 37000 |
| Route | STEIN DCT NOHAT DCT NEKIN DCT MONID DCT SIRMI DCT MOLUX DCT BEDPI DCT SOR DCT DELER/N0444F390 DCT AMANO DCT ROSAS |
| Aircraft | A320/M-SDE3FGHIRWY/LB1 |
Departure
| Time | N/A |
|---|---|
| Airport | Vienna International Airport (LOWW) |
Arrival
| Time | 2026-05-07 10:35 |
|---|---|
| Airport | Falcone–Borsellino Airport (LICJ) |
| Time | Latitude | Longitude | Altitude | Speed | Heading |
|---|---|---|---|---|---|
| 2026-05-07 09:39 | 41.90846 | 15.11164 | 37013 ft | 413 kts | 205° |
| 2026-05-07 09:40 | 41.88148 | 15.09790 | 37020 ft | 413 kts | 205° |
| 2026-05-07 09:40 | 41.82778 | 15.07048 | 37019 ft | 413 kts | 206° |
| 2026-05-07 09:41 | 41.77389 | 15.04290 | 37015 ft | 413 kts | 206° |
| 2026-05-07 09:41 | 41.72053 | 15.01576 | 37014 ft | 413 kts | 206° |
| 2026-05-07 09:42 | 41.66654 | 14.98841 | 37013 ft | 414 kts | 206° |
| 2026-05-07 09:42 | 41.61251 | 14.96102 | 37013 ft | 414 kts | 206° |
| 2026-05-07 09:43 | 41.55883 | 14.93387 | 37017 ft | 415 kts | 206° |
| 2026-05-07 09:43 | 41.50480 | 14.90666 | 37016 ft | 415 kts | 206° |
| 2026-05-07 09:44 | 41.45070 | 14.87933 | 37016 ft | 415 kts | 206° |
| 2026-05-07 09:44 | 41.39679 | 14.85211 | 37015 ft | 416 kts | 206° |
| 2026-05-07 09:45 | 41.34262 | 14.82493 | 37014 ft | 416 kts | 206° |
| 2026-05-07 09:45 | 41.28950 | 14.79567 | 37032 ft | 412 kts | 212° |
| 2026-05-07 09:46 | 41.23818 | 14.76165 | 37028 ft | 412 kts | 212° |
| 2026-05-07 09:46 | 41.18662 | 14.72773 | 37026 ft | 412 kts | 212° |
| 2026-05-07 09:47 | 41.13534 | 14.69406 | 37029 ft | 412 kts | 213° |
| 2026-05-07 09:47 | 41.08399 | 14.66048 | 37034 ft | 412 kts | 213° |
| 2026-05-07 09:48 | 41.03241 | 14.62677 | 37039 ft | 412 kts | 213° |
| 2026-05-07 09:48 | 40.98117 | 14.59335 | 37041 ft | 412 kts | 213° |
| 2026-05-07 09:49 | 40.92965 | 14.55969 | 37047 ft | 411 kts | 213° |
| 2026-05-07 09:49 | 40.87855 | 14.52643 | 37043 ft | 411 kts | 213° |
| 2026-05-07 09:50 | 40.82720 | 14.49318 | 37039 ft | 410 kts | 213° |
| 2026-05-07 09:50 | 40.77594 | 14.46000 | 37035 ft | 410 kts | 213° |
| 2026-05-07 09:51 | 40.72478 | 14.42687 | 37037 ft | 409 kts | 213° |
| 2026-05-07 09:51 | 40.67398 | 14.39395 | 37039 ft | 408 kts | 214° |
| 2026-05-07 09:52 | 40.62279 | 14.36093 | 37033 ft | 408 kts | 214° |
| 2026-05-07 09:52 | 40.57133 | 14.32970 | 37058 ft | 414 kts | 208° |
| 2026-05-07 09:53 | 40.51730 | 14.30433 | 37032 ft | 412 kts | 208° |
| 2026-05-07 09:53 | 40.46312 | 14.27898 | 37040 ft | 411 kts | 208° |
| 2026-05-07 09:54 | 40.40945 | 14.25388 | 37038 ft | 411 kts | 208° |
| 2026-05-07 09:54 | 40.35559 | 14.22871 | 37035 ft | 410 kts | 209° |
| 2026-05-07 09:55 | 40.30179 | 14.20359 | 37032 ft | 409 kts | 209° |
| 2026-05-07 09:55 | 40.24831 | 14.17866 | 37030 ft | 408 kts | 209° |
| 2026-05-07 09:56 | 40.19476 | 14.15373 | 37030 ft | 408 kts | 210° |
| 2026-05-07 09:56 | 40.14157 | 14.12897 | 37032 ft | 406 kts | 210° |
| 2026-05-07 09:57 | 40.08844 | 14.10418 | 37033 ft | 405 kts | 210° |
| 2026-05-07 09:57 | 40.03515 | 14.07936 | 37035 ft | 405 kts | 211° |
| 2026-05-07 09:58 | 39.98235 | 14.05489 | 37034 ft | 403 kts | 211° |
| 2026-05-07 09:58 | 39.92960 | 14.03036 | 37031 ft | 402 kts | 211° |
| 2026-05-07 09:59 | 39.87679 | 14.00577 | 37033 ft | 401 kts | 211° |
| 2026-05-07 09:59 | 39.82464 | 13.98164 | 37029 ft | 400 kts | 212° |
| 2026-05-07 10:00 | 39.77235 | 13.95756 | 37027 ft | 398 kts | 212° |
| 2026-05-07 10:00 | 39.72005 | 13.93351 | 37024 ft | 398 kts | 212° |
| 2026-05-07 10:01 | 39.66786 | 13.90953 | 37028 ft | 396 kts | 212° |
| 2026-05-07 10:01 | 39.61606 | 13.88570 | 37022 ft | 395 kts | 213° |
| 2026-05-07 10:02 | 39.56450 | 13.86208 | 37014 ft | 394 kts | 213° |
| 2026-05-07 10:02 | 39.51284 | 13.83835 | 37003 ft | 393 kts | 213° |
| 2026-05-07 10:03 | 39.46133 | 13.81473 | 36994 ft | 392 kts | 213° |
| 2026-05-07 10:03 | 39.40972 | 13.79119 | 36523 ft | 393 kts | 214° |
| 2026-05-07 10:03 | 39.38381 | 13.77935 | 35659 ft | 396 kts | 213° |
| 2026-05-07 10:04 | 39.35752 | 13.76733 | 34772 ft | 401 kts | 212° |
| 2026-05-07 10:04 | 39.33168 | 13.75561 | 34232 ft | 398 kts | 212° |
| 2026-05-07 10:04 | 39.30554 | 13.74383 | 33591 ft | 396 kts | 211° |
| 2026-05-07 10:04 | 39.27963 | 13.73219 | 33003 ft | 393 kts | 210° |
| 2026-05-07 10:05 | 39.25382 | 13.72063 | 32392 ft | 390 kts | 210° |
| 2026-05-07 10:05 | 39.22825 | 13.70912 | 31777 ft | 388 kts | 209° |
| 2026-05-07 10:05 | 39.20281 | 13.69764 | 31185 ft | 386 kts | 208° |
| 2026-05-07 10:05 | 39.17737 | 13.68614 | 30587 ft | 385 kts | 207° |
| 2026-05-07 10:06 | 39.15214 | 13.67470 | 29975 ft | 385 kts | 206° |
| 2026-05-07 10:06 | 39.12704 | 13.66335 | 29335 ft | 383 kts | 206° |
| 2026-05-07 10:06 | 39.10199 | 13.65208 | 28756 ft | 380 kts | 206° |
| 2026-05-07 10:06 | 39.07707 | 13.64092 | 28182 ft | 377 kts | 205° |
| 2026-05-07 10:07 | 39.05240 | 13.62989 | 27625 ft | 375 kts | 205° |
| 2026-05-07 10:07 | 39.02802 | 13.61900 | 27084 ft | 372 kts | 205° |
| 2026-05-07 10:07 | 39.00353 | 13.60804 | 26551 ft | 370 kts | 205° |
| 2026-05-07 10:07 | 38.97935 | 13.59721 | 26020 ft | 369 kts | 205° |
| 2026-05-07 10:08 | 38.95505 | 13.58628 | 25478 ft | 368 kts | 204° |
| 2026-05-07 10:08 | 38.93104 | 13.57544 | 24931 ft | 368 kts | 204° |
| 2026-05-07 10:08 | 38.90691 | 13.56460 | 24346 ft | 369 kts | 204° |
| 2026-05-07 10:08 | 38.88244 | 13.55367 | 23760 ft | 370 kts | 203° |
| 2026-05-07 10:09 | 38.85916 | 13.54030 | 23083 ft | 366 kts | 216° |
| 2026-05-07 10:09 | 38.84073 | 13.51887 | 22571 ft | 358 kts | 234° |
| 2026-05-07 10:09 | 38.82696 | 13.49252 | 22142 ft | 352 kts | 238° |
| 2026-05-07 10:09 | 38.81371 | 13.46619 | 21686 ft | 348 kts | 238° |
| 2026-05-07 10:10 | 38.80077 | 13.44055 | 21249 ft | 344 kts | 238° |
| 2026-05-07 10:10 | 38.78767 | 13.41461 | 20809 ft | 341 kts | 238° |
| 2026-05-07 10:10 | 38.77492 | 13.38947 | 20362 ft | 338 kts | 238° |
| 2026-05-07 10:10 | 38.76216 | 13.36436 | 19936 ft | 335 kts | 238° |
| 2026-05-07 10:11 | 38.74948 | 13.33936 | 19494 ft | 332 kts | 238° |
| 2026-05-07 10:11 | 38.73708 | 13.31481 | 19083 ft | 330 kts | 238° |
| 2026-05-07 10:11 | 38.72453 | 13.28993 | 18660 ft | 328 kts | 238° |
| 2026-05-07 10:11 | 38.71226 | 13.26568 | 18235 ft | 327 kts | 238° |
| 2026-05-07 10:12 | 38.69990 | 13.24135 | 17772 ft | 325 kts | 237° |
| 2026-05-07 10:12 | 38.68754 | 13.21704 | 17347 ft | 322 kts | 237° |
| 2026-05-07 10:12 | 38.67537 | 13.19308 | 16948 ft | 320 kts | 237° |
| 2026-05-07 10:12 | 38.66338 | 13.16955 | 16533 ft | 318 kts | 237° |
| 2026-05-07 10:13 | 38.65124 | 13.14577 | 16119 ft | 316 kts | 237° |
| 2026-05-07 10:13 | 38.63926 | 13.12223 | 15700 ft | 315 kts | 237° |
| 2026-05-07 10:13 | 38.62737 | 13.09883 | 15302 ft | 314 kts | 237° |
| 2026-05-07 10:13 | 38.61542 | 13.07534 | 14898 ft | 313 kts | 236° |
| 2026-05-07 10:14 | 38.60359 | 13.05220 | 14497 ft | 312 kts | 236° |
| 2026-05-07 10:14 | 38.59181 | 13.02916 | 14097 ft | 311 kts | 236° |
| 2026-05-07 10:14 | 38.57989 | 13.00590 | 13680 ft | 311 kts | 236° |
| 2026-05-07 10:14 | 38.56822 | 12.98311 | 13261 ft | 310 kts | 235° |
| 2026-05-07 10:15 | 38.55644 | 12.96011 | 12859 ft | 308 kts | 235° |
| 2026-05-07 10:15 | 38.54476 | 12.93728 | 12464 ft | 306 kts | 235° |
| 2026-05-07 10:15 | 38.53306 | 12.91444 | 12061 ft | 304 kts | 235° |
| 2026-05-07 10:15 | 38.52144 | 12.89183 | 11675 ft | 303 kts | 235° |
| 2026-05-07 10:16 | 38.50994 | 12.86940 | 11287 ft | 302 kts | 235° |
| 2026-05-07 10:16 | 38.49861 | 12.84721 | 10899 ft | 301 kts | 235° |
| 2026-05-07 10:16 | 38.48711 | 12.82477 | 10505 ft | 300 kts | 234° |
| 2026-05-07 10:16 | 38.47568 | 12.80256 | 10124 ft | 300 kts | 234° |
| 2026-05-07 10:17 | 38.46432 | 12.78054 | 9877 ft | 293 kts | 234° |
| 2026-05-07 10:17 | 38.45320 | 12.75898 | 9788 ft | 289 kts | 234° |
| 2026-05-07 10:17 | 38.44077 | 12.73979 | 9679 ft | 274 kts | 216° |
| 2026-05-07 10:17 | 38.42436 | 12.72896 | 9496 ft | 260 kts | 192° |
| 2026-05-07 10:18 | 38.40668 | 12.72737 | 9242 ft | 257 kts | 171° |
| 2026-05-07 10:18 | 38.38981 | 12.73444 | 8913 ft | 255 kts | 154° |
| 2026-05-07 10:18 | 38.37383 | 12.74406 | 8554 ft | 254 kts | 154° |
| 2026-05-07 10:18 | 38.35874 | 12.75544 | 8213 ft | 252 kts | 135° |
| 2026-05-07 10:19 | 38.34962 | 12.77394 | 7868 ft | 251 kts | 106° |
| 2026-05-07 10:19 | 38.34907 | 12.79586 | 7736 ft | 252 kts | 77° |
| 2026-05-07 10:19 | 38.35539 | 12.81680 | 7613 ft | 255 kts | 68° |
| 2026-05-07 10:19 | 38.36013 | 12.83071 | 7526 ft | 255 kts | 68° |
| 2026-05-07 10:20 | 38.36720 | 12.85147 | 7394 ft | 254 kts | 68° |
| 2026-05-07 10:20 | 38.37421 | 12.87209 | 7259 ft | 253 kts | 68° |
| 2026-05-07 10:20 | 38.38120 | 12.89276 | 7123 ft | 253 kts | 68° |
| 2026-05-07 10:20 | 38.38809 | 12.91309 | 6993 ft | 251 kts | 68° |
| 2026-05-07 10:21 | 38.39453 | 12.93322 | 6871 ft | 239 kts | 77° |
| 2026-05-07 10:21 | 38.39431 | 12.95335 | 6769 ft | 223 kts | 110° |
| 2026-05-07 10:21 | 38.38598 | 12.96917 | 6650 ft | 214 kts | 140° |
| 2026-05-07 10:21 | 38.37317 | 12.97811 | 6547 ft | 206 kts | 153° |
| 2026-05-07 10:22 | 38.36052 | 12.98551 | 6459 ft | 195 kts | 153° |
| 2026-05-07 10:22 | 38.34837 | 12.99265 | 6325 ft | 184 kts | 153° |
| 2026-05-07 10:22 | 38.33727 | 12.99916 | 6208 ft | 172 kts | 154° |
| 2026-05-07 10:22 | 38.32596 | 13.00214 | 6100 ft | 163 kts | 179° |
| 2026-05-07 10:23 | 38.31525 | 12.99889 | 6007 ft | 156 kts | 203° |
| 2026-05-07 10:23 | 38.30669 | 12.99070 | 5948 ft | 157 kts | 227° |
| 2026-05-07 10:23 | 38.30120 | 12.97846 | 5877 ft | 159 kts | 245° |
| 2026-05-07 10:23 | 38.29694 | 12.96562 | 5797 ft | 159 kts | 244° |
| 2026-05-07 10:24 | 38.29256 | 12.95268 | 5711 ft | 159 kts | 244° |
| 2026-05-07 10:24 | 38.28817 | 12.93975 | 5618 ft | 159 kts | 244° |
| 2026-05-07 10:24 | 38.28378 | 12.92682 | 5525 ft | 158 kts | 244° |
| 2026-05-07 10:24 | 38.27942 | 12.91396 | 5439 ft | 158 kts | 244° |
| 2026-05-07 10:25 | 38.27511 | 12.90121 | 5347 ft | 157 kts | 244° |
| 2026-05-07 10:25 | 38.27080 | 12.88848 | 5259 ft | 157 kts | 244° |
| 2026-05-07 10:25 | 38.26648 | 12.87568 | 5184 ft | 157 kts | 244° |
| 2026-05-07 10:25 | 38.26217 | 12.86296 | 5098 ft | 156 kts | 244° |
| 2026-05-07 10:26 | 38.25788 | 12.85041 | 5019 ft | 156 kts | 242° |
| 2026-05-07 10:26 | 38.25150 | 12.83944 | 4933 ft | 151 kts | 218° |
| 2026-05-07 10:26 | 38.24277 | 12.83251 | 5019 ft | 151 kts | 198° |
| 2026-05-07 10:26 | 38.23254 | 12.82995 | 4853 ft | 149 kts | 176° |
| 2026-05-07 10:27 | 38.22261 | 12.83216 | 4647 ft | 143 kts | 156° |
| 2026-05-07 10:27 | 38.21348 | 12.83712 | 4458 ft | 142 kts | 155° |
| 2026-05-07 10:27 | 38.20452 | 12.84199 | 4272 ft | 141 kts | 155° |
| 2026-05-07 10:27 | 38.19547 | 12.84690 | 4099 ft | 140 kts | 155° |
| 2026-05-07 10:28 | 38.18656 | 12.85171 | 3907 ft | 139 kts | 155° |
| 2026-05-07 10:28 | 38.17769 | 12.85651 | 3740 ft | 139 kts | 155° |
| 2026-05-07 10:28 | 38.16882 | 12.86133 | 3570 ft | 138 kts | 155° |
| 2026-05-07 10:28 | 38.15999 | 12.86610 | 3397 ft | 137 kts | 156° |
| 2026-05-07 10:29 | 38.15116 | 12.87084 | 3229 ft | 136 kts | 156° |
| 2026-05-07 10:29 | 38.14246 | 12.87551 | 3070 ft | 135 kts | 156° |
| 2026-05-07 10:29 | 38.13378 | 12.88018 | 2930 ft | 135 kts | 156° |
| 2026-05-07 10:30 | 38.11814 | 12.89241 | 2731 ft | 132 kts | 125° |
| 2026-05-07 10:30 | 38.11490 | 12.90338 | 2698 ft | 136 kts | 98° |
| 2026-05-07 10:30 | 38.11640 | 12.91532 | 2661 ft | 140 kts | 69° |
| 2026-05-07 10:30 | 38.12035 | 12.92662 | 2579 ft | 139 kts | 70° |
| 2026-05-07 10:31 | 38.12414 | 12.93778 | 2454 ft | 140 kts | 70° |
| 2026-05-07 10:31 | 38.12803 | 12.94922 | 2337 ft | 139 kts | 71° |
| 2026-05-07 10:31 | 38.13179 | 12.96040 | 2180 ft | 139 kts | 70° |
| 2026-05-07 10:31 | 38.13566 | 12.97187 | 1988 ft | 140 kts | 71° |
| 2026-05-07 10:32 | 38.13949 | 12.98319 | 1803 ft | 139 kts | 71° |
| 2026-05-07 10:32 | 38.14327 | 12.99437 | 1619 ft | 139 kts | 70° |
| 2026-05-07 10:32 | 38.14709 | 13.00571 | 1429 ft | 138 kts | 70° |
| 2026-05-07 10:32 | 38.15078 | 13.01666 | 1252 ft | 136 kts | 70° |
| 2026-05-07 10:33 | 38.15450 | 13.02771 | 1081 ft | 134 kts | 70° |
| 2026-05-07 10:33 | 38.15818 | 13.03857 | 912 ft | 133 kts | 69° |
| 2026-05-07 10:33 | 38.16221 | 13.04897 | 758 ft | 129 kts | 63° |
| 2026-05-07 10:33 | 38.16549 | 13.05944 | 604 ft | 127 kts | 75° |
| 2026-05-07 10:34 | 38.16835 | 13.07012 | 427 ft | 127 kts | 63° |
| 2026-05-07 10:34 | 38.17211 | 13.08012 | 289 ft | 128 kts | 64° |
| 2026-05-07 10:34 | 38.17559 | 13.09054 | 164 ft | 126 kts | 64° |
| 2026-05-07 10:34 | 38.17902 | 13.10055 | 67 ft | 118 kts | 66° |
| 2026-05-07 10:35 | 38.18059 | 13.10514 | 66 ft | 28 kts | 67° |
| 2026-05-07 10:35 | 38.18117 | 13.10683 | 65 ft | 14 kts | 65° |
| 2026-05-07 10:35 | 38.18173 | 13.10707 | 67 ft | 5 kts | 293° |
| 2026-05-07 10:35 | 38.18176 | 13.10656 | 69 ft | 7 kts | 274° |
| 2026-05-07 10:36 | 38.18181 | 13.10586 | 65 ft | 9 kts | 278° |
| 2026-05-07 10:36 | 38.18190 | 13.10505 | 62 ft | 9 kts | 277° |
| 2026-05-07 10:36 | 38.18200 | 13.10423 | 66 ft | 9 kts | 283° |
| 2026-05-07 10:36 | 38.18241 | 13.10372 | 63 ft | 8 kts | 331° |
| 2026-05-07 10:37 | 38.18292 | 13.10381 | 59 ft | 9 kts | 43° |
| 2026-05-07 10:37 | 38.18324 | 13.10456 | 59 ft | 11 kts | 58° |
| 2026-05-07 10:37 | 38.18391 | 13.10502 | 65 ft | 9 kts | 15° |
| 2026-05-07 10:37 | 38.18448 | 13.10552 | 59 ft | 9 kts | 54° |
| 2026-05-07 10:38 | 38.18473 | 13.10622 | 61 ft | 3 kts | 66° |
| 2026-05-07 10:38 | 38.18487 | 13.10632 | 65 ft | 3 kts | 22° |
| 2026-05-07 10:38 | 38.18509 | 13.10631 | 65 ft | 3 kts | 345° |
| 2026-05-07 10:38 | 38.18525 | 13.10622 | 61 ft | 2 kts | 336° |
| 2026-05-07 10:39 | 38.18538 | 13.10615 | 59 ft | 2 kts | 337° |
| 2026-05-07 10:39 | 38.18546 | 13.10610 | 61 ft | 1 kts | 337° |
| 2026-05-07 10:39 | 38.18549 | 13.10609 | 62 ft | 0 kts | 336° |